Algiers, Indiana
Current Conditions -  °F | °C
As of 12:35 AM on Tuesday 21 Oct 2014 (Local Time) from KDCY Reporting Station
Clear Clear  
Wind Chill: 52°   Ceiling: Unl
Heat Index: 52°   Visibility: 10mi
Dew Point: 45°   Wind: 6mph
Humidity: 75%   Direction: 300°WNW
Pressure: 29.97"   Gusts: NA
Location:  38.4723°N, 87.3105°W
Report Text: KDCY 210535Z AUTO 30005KT 10SM CLR 11/07 A2997 RMK AO2 T01130071
Loading
Personal Weather Stations






























Interactive Weather Map
Tropical Storm Tracking
New forecast layout! Learn more

10-Day Weather Forecast

Advertisements
Track Severe Weather on mobile